POGODA: Poland

Lotnisko: Katowice-Pyrzowice

METAR KOD: EPKT


METAR: EPKT 231230Z 02011KT 2500 DZ BR FEW001 BKN002 04/04 Q1016


BLOK
Pogoda METAR
231230Z
Dzien: 23, Godzina: 12:30 UTC.
02011KT
Wiatr z kierunku 020, o predkosci 20 km/h
2500
Widzialnosc pozioma 2500 m.
DZ
mzawka
BR
zamglenia
FEW001
1/8 - 2/8 pokrycia nieba, chmurami o podstawie: 30 metrow
BKN002
5/8 - 7/8 pokrycia nieba, chmurami o podstawie: 60 metrow
04/04
Temperatura: powietrze 4°C, punkt rosy 4°C . Wilgotnosc wzgledna 100 %
Q1016
Cisnienie: 1016 hPa

Pogoda na innym lotnisku

Pogoda Gdansk-Rebiechowo WEATHER Poland  
Pogoda Katowice WEATHER Poland  
Pogoda Krakow WEATHER Poland  
Pogoda Poznan WEATHER Poland  
Pogoda Rzeszow-Jasionka WEATHER Poland  
Pogoda Szczecin WEATHER Poland  
Pogoda Warszawa-Okecie WEATHER Poland  
Pogoda Wroclaw Ii WEATHER Poland  

Pogoda w inny kraju

Strona startowa

(C) by GREGOR 2007
Ogłoszenia Towarzyskie